Hauptseite
METAR-TAF:

METAR-TAF

Flughäfen :

Flughafen Le Havre

Le Havre, Frankreich

Breite: 49-31N, Länge: 000-04E, Höhe: 100 m

Beobachtung

Neuester Wetterbericht von vor 25 Minuten, um 02:30 UTC
Wind 6 kt aus Nordost
Temperatur 2°C
Luftfeuchtigkeit 80%
Luftdruck 1031 hPa
Sichtweite 10 km oder mehr
keine Wolken unter 1500 m und keine Kumulonimbus oder Gewitterwolken

METAR: LFOH 150230Z AUTO 05006KT CAVOK 02/M01 Q1031

Zeit: 04:55 (02:55 UTC)

Prognose

Neuester Wetterbericht von vor 15 Stunden und 55 Minuten, um 11:00 UTC
Gültige Prognose vom 14 um 12 UTC bis 15 um 12 UTC
Wind 10 kt aus Nordost
Sichtweite 10 km oder mehr
keine Wolken unter 1500 m und keine Kumulonimbus oder Gewitterwolken

TAF: LFOH 141100Z 1412/1512 05010KT CAVOK

Wetterbeobachtungen und Prognosen von mehr als 4000 Flughäfen (METAR und TAF Bericht).

Die verfügbaren Stationen werden durch gelbe und rote Markierungen auf der Karte dargestellt.

Führen Sie die Maus auf sie, um den Namen der Station zu sehen.

Darauf klicken, um die Beobachtung von Wetterbeobachtungen und Prognosen zu sehen.

Um die Karte zu ändern : klicken Sie auf den grünen Tasten mit einem schwarzen Kreuz Zum Vergrößern, auf den grünen Button mit einem Gedankenstrich zu verkleinern, oder auf die grünen Pfeile für benachbarte Karten.


METAR-TAF: